sensor_id;sensor_type;location;lat;lon;timestamp;P1;durP1;ratioP1;P2;durP2;ratioP2
8550;SDS011;4313;42.000;21.380;2022-12-22T00:01:53;125.27;;;63.40;;
8550;SDS011;4313;42.000;21.380;2022-12-22T00:04:38;105.93;;;59.50;;
8550;SDS011;4313;42.000;21.380;2022-12-22T00:07:24;107.60;;;58.20;;
8550;SDS011;4313;42.000;21.380;2022-12-22T00:10:08;103.40;;;54.43;;
8550;SDS011;4313;42.000;21.380;2022-12-22T00:12:53;73.73;;;42.30;;
8550;SDS011;4313;42.000;21.380;2022-12-22T00:15:39;66.63;;;37.80;;
8550;SDS011;4313;42.000;21.380;2022-12-22T00:18:24;68.40;;;39.23;;
8550;SDS011;4313;42.000;21.380;2022-12-22T00:21:10;72.17;;;41.60;;
8550;SDS011;4313;42.000;21.380;2022-12-22T00:23:55;76.80;;;44.30;;
8550;SDS011;4313;42.000;21.380;2022-12-22T00:26:39;77.83;;;43.40;;
8550;SDS011;4313;42.000;21.380;2022-12-22T00:29:24;75.67;;;42.20;;
8550;SDS011;4313;42.000;21.380;2022-12-22T00:32:12;75.27;;;42.70;;
8550;SDS011;4313;42.000;21.380;2022-12-22T00:34:57;70.03;;;43.03;;
8550;SDS011;4313;42.000;21.380;2022-12-22T00:37:41;86.50;;;47.90;;
8550;SDS011;4313;42.000;21.380;2022-12-22T00:40:26;72.83;;;42.67;;
8550;SDS011;4313;42.000;21.380;2022-12-22T00:43:11;76.63;;;43.73;;
8550;SDS011;4313;42.000;21.380;2022-12-22T00:45:56;79.03;;;46.13;;
8550;SDS011;4313;42.000;21.380;2022-12-22T00:48:42;93.90;;;56.17;;
8550;SDS011;4313;42.000;21.380;2022-12-22T00:51:28;72.30;;;42.13;;
8550;SDS011;4313;42.000;21.380;2022-12-22T00:54:14;73.10;;;44.00;;
8550;SDS011;4313;42.000;21.380;2022-12-22T00:56:59;89.30;;;51.03;;
8550;SDS011;4313;42.000;21.380;2022-12-22T00:59:45;76.60;;;45.77;;
8550;SDS011;4313;42.000;21.380;2022-12-22T01:02:30;76.20;;;45.33;;
8550;SDS011;4313;42.000;21.380;2022-12-22T01:05:16;80.87;;;48.07;;
8550;SDS011;4313;42.000;21.380;2022-12-22T01:08:01;78.33;;;44.73;;
8550;SDS011;4313;42.000;21.380;2022-12-22T01:10:45;71.93;;;44.07;;
8550;SDS011;4313;42.000;21.380;2022-12-22T01:13:30;65.80;;;41.83;;
8550;SDS011;4313;42.000;21.380;2022-12-22T01:16:15;71.53;;;42.50;;
8550;SDS011;4313;42.000;21.380;2022-12-22T01:19:00;67.90;;;39.90;;
8550;SDS011;4313;42.000;21.380;2022-12-22T01:21:46;70.93;;;41.10;;
8550;SDS011;4313;42.000;21.380;2022-12-22T01:24:31;74.03;;;39.87;;
8550;SDS011;4313;42.000;21.380;2022-12-22T01:27:15;73.37;;;42.63;;
8550;SDS011;4313;42.000;21.380;2022-12-22T01:30:00;78.70;;;43.40;;
8550;SDS011;4313;42.000;21.380;2022-12-22T01:32:44;82.97;;;46.93;;
8550;SDS011;4313;42.000;21.380;2022-12-22T01:35:30;91.20;;;45.70;;
8550;SDS011;4313;42.000;21.380;2022-12-22T01:38:18;67.43;;;38.80;;
8550;SDS011;4313;42.000;21.380;2022-12-22T01:41:04;64.40;;;38.13;;
8550;SDS011;4313;42.000;21.380;2022-12-22T01:43:48;63.70;;;37.97;;
8550;SDS011;4313;42.000;21.380;2022-12-22T01:46:34;62.40;;;37.57;;
8550;SDS011;4313;42.000;21.380;2022-12-22T01:49:21;63.33;;;35.97;;
8550;SDS011;4313;42.000;21.380;2022-12-22T01:52:08;63.47;;;37.10;;
8550;SDS011;4313;42.000;21.380;2022-12-22T01:54:55;69.00;;;39.37;;
8550;SDS011;4313;42.000;21.380;2022-12-22T01:57:42;67.03;;;37.63;;
8550;SDS011;4313;42.000;21.380;2022-12-22T02:00:27;74.70;;;37.40;;
8550;SDS011;4313;42.000;21.380;2022-12-22T02:03:15;62.63;;;35.00;;
8550;SDS011;4313;42.000;21.380;2022-12-22T02:06:04;68.00;;;36.23;;
8550;SDS011;4313;42.000;21.380;2022-12-22T02:09:00;67.47;;;36.67;;
8550;SDS011;4313;42.000;21.380;2022-12-22T02:11:55;67.73;;;35.93;;
8550;SDS011;4313;42.000;21.380;2022-12-22T02:14:45;63.30;;;35.40;;
8550;SDS011;4313;42.000;21.380;2022-12-22T02:17:34;65.00;;;35.30;;
8550;SDS011;4313;42.000;21.380;2022-12-22T02:20:30;69.90;;;37.23;;
8550;SDS011;4313;42.000;21.380;2022-12-22T02:23:23;61.60;;;34.47;;
8550;SDS011;4313;42.000;21.380;2022-12-22T02:26:19;60.73;;;34.30;;
8550;SDS011;4313;42.000;21.380;2022-12-22T02:29:10;63.13;;;34.27;;
8550;SDS011;4313;42.000;21.380;2022-12-22T02:31:56;67.27;;;35.80;;
8550;SDS011;4313;42.000;21.380;2022-12-22T02:34:41;69.17;;;37.70;;
8550;SDS011;4313;42.000;21.380;2022-12-22T02:37:28;70.00;;;37.77;;
8550;SDS011;4313;42.000;21.380;2022-12-22T02:40:15;71.63;;;40.30;;
8550;SDS011;4313;42.000;21.380;2022-12-22T02:43:05;89.97;;;45.07;;
8550;SDS011;4313;42.000;21.380;2022-12-22T02:45:58;78.17;;;42.30;;
8550;SDS011;4313;42.000;21.380;2022-12-22T02:48:46;74.87;;;39.80;;
8550;SDS011;4313;42.000;21.380;2022-12-22T02:51:35;68.87;;;38.07;;
8550;SDS011;4313;42.000;21.380;2022-12-22T02:54:22;59.97;;;35.73;;
8550;SDS011;4313;42.000;21.380;2022-12-22T02:57:07;63.10;;;37.07;;
8550;SDS011;4313;42.000;21.380;2022-12-22T02:59:55;60.63;;;36.13;;
8550;SDS011;4313;42.000;21.380;2022-12-22T03:02:40;62.17;;;35.20;;
8550;SDS011;4313;42.000;21.380;2022-12-22T03:05:24;78.17;;;42.33;;
8550;SDS011;4313;42.000;21.380;2022-12-22T03:08:09;80.07;;;42.40;;
8550;SDS011;4313;42.000;21.380;2022-12-22T03:10:54;101.83;;;52.33;;
8550;SDS011;4313;42.000;21.380;2022-12-22T03:13:38;92.20;;;46.30;;
8550;SDS011;4313;42.000;21.380;2022-12-22T03:16:24;68.17;;;38.90;;
8550;SDS011;4313;42.000;21.380;2022-12-22T03:19:09;70.57;;;37.90;;
8550;SDS011;4313;42.000;21.380;2022-12-22T03:21:53;72.57;;;40.63;;
8550;SDS011;4313;42.000;21.380;2022-12-22T03:24:38;57.77;;;34.50;;
8550;SDS011;4313;42.000;21.380;2022-12-22T03:27:22;69.33;;;40.33;;
8550;SDS011;4313;42.000;21.380;2022-12-22T03:29:49;71.00;;;39.07;;
8550;SDS011;4313;42.000;21.380;2022-12-22T03:32:37;69.33;;;39.10;;
8550;SDS011;4313;42.000;21.380;2022-12-22T03:35:04;66.63;;;38.93;;
8550;SDS011;4313;42.000;21.380;2022-12-22T03:37:32;63.63;;;37.17;;
8550;SDS011;4313;42.000;21.380;2022-12-22T03:39:59;67.17;;;39.57;;
8550;SDS011;4313;42.000;21.380;2022-12-22T03:42:26;72.93;;;38.27;;
8550;SDS011;4313;42.000;21.380;2022-12-22T03:45:11;62.60;;;35.43;;
8550;SDS011;4313;42.000;21.380;2022-12-22T03:47:58;64.60;;;34.93;;
8550;SDS011;4313;42.000;21.380;2022-12-22T03:50:25;63.00;;;34.37;;
8550;SDS011;4313;42.000;21.380;2022-12-22T03:52:54;59.13;;;33.13;;
8550;SDS011;4313;42.000;21.380;2022-12-22T03:55:21;57.40;;;34.50;;
8550;SDS011;4313;42.000;21.380;2022-12-22T03:57:48;59.77;;;36.37;;
8550;SDS011;4313;42.000;21.380;2022-12-22T04:00:15;56.90;;;34.60;;
8550;SDS011;4313;42.000;21.380;2022-12-22T04:02:43;63.73;;;36.10;;
8550;SDS011;4313;42.000;21.380;2022-12-22T04:05:11;60.63;;;35.50;;
8550;SDS011;4313;42.000;21.380;2022-12-22T04:07:39;69.83;;;41.07;;
8550;SDS011;4313;42.000;21.380;2022-12-22T04:10:06;59.90;;;35.27;;
8550;SDS011;4313;42.000;21.380;2022-12-22T04:12:52;87.53;;;47.37;;
8550;SDS011;4313;42.000;21.380;2022-12-22T04:15:22;78.20;;;42.77;;
8550;SDS011;4313;42.000;21.380;2022-12-22T04:17:49;81.20;;;43.27;;
8550;SDS011;4313;42.000;21.380;2022-12-22T04:20:19;69.33;;;38.77;;
8550;SDS011;4313;42.000;21.380;2022-12-22T04:22:46;68.57;;;38.60;;
8550;SDS011;4313;42.000;21.380;2022-12-22T04:25:32;68.13;;;40.30;;
8550;SDS011;4313;42.000;21.380;2022-12-22T04:28:17;68.33;;;37.17;;
8550;SDS011;4313;42.000;21.380;2022-12-22T04:30:44;63.53;;;36.63;;
8550;SDS011;4313;42.000;21.380;2022-12-22T04:33:15;62.17;;;35.57;;
8550;SDS011;4313;42.000;21.380;2022-12-22T04:35:44;58.70;;;33.60;;
8550;SDS011;4313;42.000;21.380;2022-12-22T04:38:29;62.27;;;34.70;;
8550;SDS011;4313;42.000;21.380;2022-12-22T04:40:56;57.73;;;32.67;;
8550;SDS011;4313;42.000;21.380;2022-12-22T04:43:23;54.90;;;30.90;;
8550;SDS011;4313;42.000;21.380;2022-12-22T04:45:51;50.67;;;30.67;;
8550;SDS011;4313;42.000;21.380;2022-12-22T04:48:18;58.80;;;34.03;;
8550;SDS011;4313;42.000;21.380;2022-12-22T04:50:50;60.70;;;33.63;;
8550;SDS011;4313;42.000;21.380;2022-12-22T04:53:18;57.60;;;34.13;;
8550;SDS011;4313;42.000;21.380;2022-12-22T04:55:46;61.77;;;34.77;;
8550;SDS011;4313;42.000;21.380;2022-12-22T04:58:14;58.87;;;31.97;;
8550;SDS011;4313;42.000;21.380;2022-12-22T05:00:41;67.40;;;36.53;;
8550;SDS011;4313;42.000;21.380;2022-12-22T05:03:08;67.47;;;38.17;;
8550;SDS011;4313;42.000;21.380;2022-12-22T05:05:36;60.97;;;35.27;;
8550;SDS011;4313;42.000;21.380;2022-12-22T05:08:05;63.53;;;35.47;;
8550;SDS011;4313;42.000;21.380;2022-12-22T05:10:32;64.47;;;36.43;;
8550;SDS011;4313;42.000;21.380;2022-12-22T05:12:59;61.37;;;35.03;;
8550;SDS011;4313;42.000;21.380;2022-12-22T05:15:27;68.27;;;36.17;;
8550;SDS011;4313;42.000;21.380;2022-12-22T05:17:55;68.47;;;35.87;;
8550;SDS011;4313;42.000;21.380;2022-12-22T05:20:24;61.70;;;36.07;;
8550;SDS011;4313;42.000;21.380;2022-12-22T05:23:12;62.87;;;34.83;;
8550;SDS011;4313;42.000;21.380;2022-12-22T05:25:39;64.97;;;37.90;;
8550;SDS011;4313;42.000;21.380;2022-12-22T05:28:06;63.93;;;36.43;;
8550;SDS011;4313;42.000;21.380;2022-12-22T05:30:33;58.03;;;36.20;;
8550;SDS011;4313;42.000;21.380;2022-12-22T05:33:01;62.57;;;37.47;;
8550;SDS011;4313;42.000;21.380;2022-12-22T05:35:28;61.57;;;36.77;;
8550;SDS011;4313;42.000;21.380;2022-12-22T05:37:55;60.63;;;35.70;;
8550;SDS011;4313;42.000;21.380;2022-12-22T05:40:24;66.37;;;36.60;;
8550;SDS011;4313;42.000;21.380;2022-12-22T05:42:51;69.60;;;37.63;;
8550;SDS011;4313;42.000;21.380;2022-12-22T05:45:19;68.03;;;37.57;;
8550;SDS011;4313;42.000;21.380;2022-12-22T05:47:48;74.27;;;41.50;;
8550;SDS011;4313;42.000;21.380;2022-12-22T05:50:17;71.53;;;40.50;;
8550;SDS011;4313;42.000;21.380;2022-12-22T05:52:56;82.43;;;42.10;;
8550;SDS011;4313;42.000;21.380;2022-12-22T05:55:25;82.60;;;44.03;;
8550;SDS011;4313;42.000;21.380;2022-12-22T05:57:52;80.03;;;40.00;;
8550;SDS011;4313;42.000;21.380;2022-12-22T06:00:20;76.10;;;41.73;;
8550;SDS011;4313;42.000;21.380;2022-12-22T06:02:48;82.07;;;42.43;;
8550;SDS011;4313;42.000;21.380;2022-12-22T06:05:15;77.53;;;42.03;;
8550;SDS011;4313;42.000;21.380;2022-12-22T06:07:43;78.93;;;45.33;;
8550;SDS011;4313;42.000;21.380;2022-12-22T06:10:10;67.43;;;39.93;;
8550;SDS011;4313;42.000;21.380;2022-12-22T06:12:40;137.13;;;80.30;;
8550;SDS011;4313;42.000;21.380;2022-12-22T06:15:08;99.27;;;59.50;;
8550;SDS011;4313;42.000;21.380;2022-12-22T06:17:37;83.33;;;49.50;;
8550;SDS011;4313;42.000;21.380;2022-12-22T06:20:05;80.13;;;46.50;;
8550;SDS011;4313;42.000;21.380;2022-12-22T06:22:33;66.83;;;37.97;;
8550;SDS011;4313;42.000;21.380;2022-12-22T06:25:00;62.93;;;36.23;;
8550;SDS011;4313;42.000;21.380;2022-12-22T06:27:27;60.03;;;36.13;;
8550;SDS011;4313;42.000;21.380;2022-12-22T06:29:57;66.13;;;38.53;;
8550;SDS011;4313;42.000;21.380;2022-12-22T06:32:24;71.67;;;41.60;;
8550;SDS011;4313;42.000;21.380;2022-12-22T06:34:51;70.43;;;42.70;;
8550;SDS011;4313;42.000;21.380;2022-12-22T06:37:18;70.30;;;43.70;;
8550;SDS011;4313;42.000;21.380;2022-12-22T06:39:45;74.53;;;45.90;;
8550;SDS011;4313;42.000;21.380;2022-12-22T06:42:12;77.43;;;46.10;;
8550;SDS011;4313;42.000;21.380;2022-12-22T06:44:58;76.90;;;49.63;;
8550;SDS011;4313;42.000;21.380;2022-12-22T06:47:26;75.80;;;48.43;;
8550;SDS011;4313;42.000;21.380;2022-12-22T06:49:53;76.90;;;47.83;;
8550;SDS011;4313;42.000;21.380;2022-12-22T06:52:20;80.10;;;48.43;;
8550;SDS011;4313;42.000;21.380;2022-12-22T06:54:47;81.47;;;51.27;;
8550;SDS011;4313;42.000;21.380;2022-12-22T06:57:14;87.80;;;54.77;;
8550;SDS011;4313;42.000;21.380;2022-12-22T06:59:45;80.33;;;49.23;;
8550;SDS011;4313;42.000;21.380;2022-12-22T07:02:14;89.23;;;51.43;;
8550;SDS011;4313;42.000;21.380;2022-12-22T07:04:41;80.80;;;52.37;;
8550;SDS011;4313;42.000;21.380;2022-12-22T07:07:22;85.93;;;52.80;;
8550;SDS011;4313;42.000;21.380;2022-12-22T07:09:49;80.67;;;49.53;;
8550;SDS011;4313;42.000;21.380;2022-12-22T07:12:16;75.93;;;48.00;;
8550;SDS011;4313;42.000;21.380;2022-12-22T07:14:44;83.17;;;51.20;;
8550;SDS011;4313;42.000;21.380;2022-12-22T07:17:11;79.97;;;48.93;;
8550;SDS011;4313;42.000;21.380;2022-12-22T07:19:41;79.90;;;48.83;;
8550;SDS011;4313;42.000;21.380;2022-12-22T07:22:12;82.93;;;51.10;;
8550;SDS011;4313;42.000;21.380;2022-12-22T07:24:39;87.07;;;52.57;;
8550;SDS011;4313;42.000;21.380;2022-12-22T07:27:06;84.03;;;53.67;;
8550;SDS011;4313;42.000;21.380;2022-12-22T07:32:05;82.60;;;51.33;;
8550;SDS011;4313;42.000;21.380;2022-12-22T07:34:32;83.33;;;48.10;;
8550;SDS011;4313;42.000;21.380;2022-12-22T07:37:00;79.07;;;47.10;;
8550;SDS011;4313;42.000;21.380;2022-12-22T07:39:28;75.77;;;46.37;;
8550;SDS011;4313;42.000;21.380;2022-12-22T07:41:56;82.97;;;48.67;;
8550;SDS011;4313;42.000;21.380;2022-12-22T07:44:40;82.77;;;48.00;;
8550;SDS011;4313;42.000;21.380;2022-12-22T07:47:07;84.90;;;50.23;;
8550;SDS011;4313;42.000;21.380;2022-12-22T07:49:34;81.50;;;51.30;;
8550;SDS011;4313;42.000;21.380;2022-12-22T07:52:20;99.53;;;55.63;;
8550;SDS011;4313;42.000;21.380;2022-12-22T07:54:47;83.07;;;50.87;;
8550;SDS011;4313;42.000;21.380;2022-12-22T07:57:14;86.47;;;51.60;;
8550;SDS011;4313;42.000;21.380;2022-12-22T07:59:41;76.73;;;45.27;;
8550;SDS011;4313;42.000;21.380;2022-12-22T08:02:09;79.50;;;48.03;;
8550;SDS011;4313;42.000;21.380;2022-12-22T08:04:37;80.10;;;48.33;;
8550;SDS011;4313;42.000;21.380;2022-12-22T08:07:04;78.03;;;47.50;;
8550;SDS011;4313;42.000;21.380;2022-12-22T08:09:33;86.30;;;46.90;;
8550;SDS011;4313;42.000;21.380;2022-12-22T08:12:00;72.90;;;44.20;;
8550;SDS011;4313;42.000;21.380;2022-12-22T08:14:28;84.17;;;46.10;;
8550;SDS011;4313;42.000;21.380;2022-12-22T08:16:55;86.60;;;48.70;;
8550;SDS011;4313;42.000;21.380;2022-12-22T08:19:22;81.33;;;45.70;;
8550;SDS011;4313;42.000;21.380;2022-12-22T08:21:49;76.80;;;44.97;;
8550;SDS011;4313;42.000;21.380;2022-12-22T08:24:17;81.27;;;41.23;;
8550;SDS011;4313;42.000;21.380;2022-12-22T08:26:46;84.00;;;44.77;;
8550;SDS011;4313;42.000;21.380;2022-12-22T08:29:15;88.67;;;48.77;;
8550;SDS011;4313;42.000;21.380;2022-12-22T08:31:46;92.53;;;49.03;;
8550;SDS011;4313;42.000;21.380;2022-12-22T08:34:14;84.50;;;48.37;;
8550;SDS011;4313;42.000;21.380;2022-12-22T08:36:43;99.73;;;56.83;;
8550;SDS011;4313;42.000;21.380;2022-12-22T08:39:19;105.93;;;58.90;;
8550;SDS011;4313;42.000;21.380;2022-12-22T08:41:51;105.57;;;55.77;;
8550;SDS011;4313;42.000;21.380;2022-12-22T08:44:22;110.60;;;60.00;;
8550;SDS011;4313;42.000;21.380;2022-12-22T08:46:51;109.73;;;59.13;;
8550;SDS011;4313;42.000;21.380;2022-12-22T08:49:19;109.50;;;55.47;;
8550;SDS011;4313;42.000;21.380;2022-12-22T08:51:47;106.23;;;54.53;;
8550;SDS011;4313;42.000;21.380;2022-12-22T08:54:15;103.17;;;56.70;;
8550;SDS011;4313;42.000;21.380;2022-12-22T08:56:42;107.17;;;56.07;;
8550;SDS011;4313;42.000;21.380;2022-12-22T08:59:13;115.20;;;61.03;;
8550;SDS011;4313;42.000;21.380;2022-12-22T09:01:41;100.50;;;56.40;;
8550;SDS011;4313;42.000;21.380;2022-12-22T09:04:12;97.17;;;54.50;;
8550;SDS011;4313;42.000;21.380;2022-12-22T09:06:40;107.67;;;53.63;;
8550;SDS011;4313;42.000;21.380;2022-12-22T09:09:11;109.80;;;59.47;;
8550;SDS011;4313;42.000;21.380;2022-12-22T09:11:40;105.43;;;56.77;;
8550;SDS011;4313;42.000;21.380;2022-12-22T09:14:08;116.27;;;65.03;;
8550;SDS011;4313;42.000;21.380;2022-12-22T09:16:37;100.57;;;53.50;;
8550;SDS011;4313;42.000;21.380;2022-12-22T09:19:04;112.40;;;59.87;;
8550;SDS011;4313;42.000;21.380;2022-12-22T09:21:32;106.17;;;55.93;;
8550;SDS011;4313;42.000;21.380;2022-12-22T09:23:59;97.43;;;53.47;;
8550;SDS011;4313;42.000;21.380;2022-12-22T09:26:28;106.47;;;56.57;;
8550;SDS011;4313;42.000;21.380;2022-12-22T09:28:56;104.43;;;55.60;;
8550;SDS011;4313;42.000;21.380;2022-12-22T09:31:23;122.43;;;66.27;;
8550;SDS011;4313;42.000;21.380;2022-12-22T09:33:53;101.40;;;54.37;;
8550;SDS011;4313;42.000;21.380;2022-12-22T09:36:20;97.20;;;55.60;;
8550;SDS011;4313;42.000;21.380;2022-12-22T09:38:48;99.30;;;55.97;;
8550;SDS011;4313;42.000;21.380;2022-12-22T09:41:17;104.50;;;54.83;;
8550;SDS011;4313;42.000;21.380;2022-12-22T09:43:46;98.47;;;53.47;;
8550;SDS011;4313;42.000;21.380;2022-12-22T09:46:17;99.00;;;52.40;;
8550;SDS011;4313;42.000;21.380;2022-12-22T09:48:48;95.97;;;53.03;;
8550;SDS011;4313;42.000;21.380;2022-12-22T09:51:17;101.60;;;57.27;;
8550;SDS011;4313;42.000;21.380;2022-12-22T09:53:45;101.97;;;56.27;;
8550;SDS011;4313;42.000;21.380;2022-12-22T09:56:14;95.47;;;55.07;;
8550;SDS011;4313;42.000;21.380;2022-12-22T09:58:44;90.20;;;56.00;;
8550;SDS011;4313;42.000;21.380;2022-12-22T10:01:18;91.97;;;53.73;;
8550;SDS011;4313;42.000;21.380;2022-12-22T10:04:03;84.93;;;50.97;;
8550;SDS011;4313;42.000;21.380;2022-12-22T10:06:48;89.30;;;51.50;;
8550;SDS011;4313;42.000;21.380;2022-12-22T10:09:21;88.23;;;52.77;;
8550;SDS011;4313;42.000;21.380;2022-12-22T10:11:53;86.07;;;52.70;;
8550;SDS011;4313;42.000;21.380;2022-12-22T10:14:24;90.80;;;54.20;;
8550;SDS011;4313;42.000;21.380;2022-12-22T10:19:41;92.20;;;54.47;;
8550;SDS011;4313;42.000;21.380;2022-12-22T10:22:16;91.63;;;58.60;;
8550;SDS011;4313;42.000;21.380;2022-12-22T10:24:46;89.03;;;53.80;;
8550;SDS011;4313;42.000;21.380;2022-12-22T10:27:15;80.03;;;51.10;;
8550;SDS011;4313;42.000;21.380;2022-12-22T10:29:43;80.47;;;51.57;;
8550;SDS011;4313;42.000;21.380;2022-12-22T10:32:11;79.70;;;53.40;;
8550;SDS011;4313;42.000;21.380;2022-12-22T10:34:58;90.53;;;58.17;;
8550;SDS011;4313;42.000;21.380;2022-12-22T10:37:32;83.00;;;55.17;;
8550;SDS011;4313;42.000;21.380;2022-12-22T10:42:44;76.68;;;51.58;;
8550;SDS011;4313;42.000;21.380;2022-12-22T10:45:16;79.53;;;51.05;;
8550;SDS011;4313;42.000;21.380;2022-12-22T10:47:46;72.00;;;50.17;;
8550;SDS011;4313;42.000;21.380;2022-12-22T10:50:15;81.93;;;51.90;;
8550;SDS011;4313;42.000;21.380;2022-12-22T10:52:49;75.47;;;50.78;;
8550;SDS011;4313;42.000;21.380;2022-12-22T10:55:18;72.47;;;47.10;;
8550;SDS011;4313;42.000;21.380;2022-12-22T10:57:56;74.78;;;50.53;;
8550;SDS011;4313;42.000;21.380;2022-12-22T11:00:35;69.97;;;48.75;;
8550;SDS011;4313;42.000;21.380;2022-12-22T11:03:03;69.13;;;47.07;;
8550;SDS011;4313;42.000;21.380;2022-12-22T11:05:31;76.70;;;49.20;;
8550;SDS011;4313;42.000;21.380;2022-12-22T11:08:01;72.72;;;48.90;;
8550;SDS011;4313;42.000;21.380;2022-12-22T11:10:40;73.82;;;48.95;;
8550;SDS011;4313;42.000;21.380;2022-12-22T11:13:22;69.30;;;46.90;;
8550;SDS011;4313;42.000;21.380;2022-12-22T11:16:08;69.07;;;44.88;;
8550;SDS011;4313;42.000;21.380;2022-12-22T11:18:42;66.68;;;46.30;;
8550;SDS011;4313;42.000;21.380;2022-12-22T11:21:18;65.45;;;43.55;;
8550;SDS011;4313;42.000;21.380;2022-12-22T11:23:49;72.55;;;50.67;;
8550;SDS011;4313;42.000;21.380;2022-12-22T11:26:23;67.13;;;45.63;;
8550;SDS011;4313;42.000;21.380;2022-12-22T11:29:02;66.28;;;45.97;;
8550;SDS011;4313;42.000;21.380;2022-12-22T11:31:41;63.17;;;44.20;;
8550;SDS011;4313;42.000;21.380;2022-12-22T11:34:19;62.75;;;44.53;;
8550;SDS011;4313;42.000;21.380;2022-12-22T11:36:55;72.63;;;50.72;;
8550;SDS011;4313;42.000;21.380;2022-12-22T11:39:35;60.60;;;43.33;;
8550;SDS011;4313;42.000;21.380;2022-12-22T11:42:10;57.67;;;41.67;;
8550;SDS011;4313;42.000;21.380;2022-12-22T11:45:02;60.83;;;40.88;;
8550;SDS011;4313;42.000;21.380;2022-12-22T11:47:38;59.15;;;41.00;;
8550;SDS011;4313;42.000;21.380;2022-12-22T11:50:25;61.05;;;39.67;;
8550;SDS011;4313;42.000;21.380;2022-12-22T11:52:57;58.90;;;39.90;;
8550;SDS011;4313;42.000;21.380;2022-12-22T11:55:32;59.25;;;40.40;;
8550;SDS011;4313;42.000;21.380;2022-12-22T11:58:09;56.80;;;39.00;;
8550;SDS011;4313;42.000;21.380;2022-12-22T12:00:48;59.47;;;39.35;;
8550;SDS011;4313;42.000;21.380;2022-12-22T12:03:29;64.95;;;41.45;;
8550;SDS011;4313;42.000;21.380;2022-12-22T12:09:17;50.78;;;37.25;;
8550;SDS011;4313;42.000;21.380;2022-12-22T12:11:57;54.53;;;38.33;;
8550;SDS011;4313;42.000;21.380;2022-12-22T12:14:29;59.17;;;40.05;;
8550;SDS011;4313;42.000;21.380;2022-12-22T12:16:58;62.30;;;41.25;;
8550;SDS011;4313;42.000;21.380;2022-12-22T12:19:49;65.38;;;41.47;;
8550;SDS011;4313;42.000;21.380;2022-12-22T12:22:39;65.00;;;42.80;;
8550;SDS011;4313;42.000;21.380;2022-12-22T12:25:22;63.90;;;42.22;;
8550;SDS011;4313;42.000;21.380;2022-12-22T12:30:42;65.70;;;42.10;;
8550;SDS011;4313;42.000;21.380;2022-12-22T12:33:20;72.10;;;43.45;;
8550;SDS011;4313;42.000;21.380;2022-12-22T12:35:53;65.85;;;41.40;;
8550;SDS011;4313;42.000;21.380;2022-12-22T12:38:29;63.53;;;41.23;;
8550;SDS011;4313;42.000;21.380;2022-12-22T12:41:01;64.35;;;41.13;;
8550;SDS011;4313;42.000;21.380;2022-12-22T12:43:32;62.20;;;41.13;;
8550;SDS011;4313;42.000;21.380;2022-12-22T12:46:00;68.90;;;41.07;;
8550;SDS011;4313;42.000;21.380;2022-12-22T12:55:57;66.83;;;41.77;;
8550;SDS011;4313;42.000;21.380;2022-12-22T12:58:49;68.67;;;41.20;;
8550;SDS011;4313;42.000;21.380;2022-12-22T13:13:51;74.43;;;44.83;;
8550;SDS011;4313;42.000;21.380;2022-12-22T13:19:09;82.17;;;47.17;;
8550;SDS011;4313;42.000;21.380;2022-12-22T13:21:43;105.73;;;57.30;;
8550;SDS011;4313;42.000;21.380;2022-12-22T13:24:13;91.07;;;47.97;;
8550;SDS011;4313;42.000;21.380;2022-12-22T13:26:53;95.33;;;54.83;;
8550;SDS011;4313;42.000;21.380;2022-12-22T13:29:25;85.80;;;49.57;;
8550;SDS011;4313;42.000;21.380;2022-12-22T13:31:55;100.40;;;56.73;;
8550;SDS011;4313;42.000;21.380;2022-12-22T13:37:19;111.57;;;62.13;;
8550;SDS011;4313;42.000;21.380;2022-12-22T13:40:04;88.43;;;52.73;;
8550;SDS011;4313;42.000;21.380;2022-12-22T13:42:39;84.77;;;49.93;;
8550;SDS011;4313;42.000;21.380;2022-12-22T13:45:17;437.00;;;246.17;;
8550;SDS011;4313;42.000;21.380;2022-12-22T13:47:51;92.20;;;52.03;;
8550;SDS011;4313;42.000;21.380;2022-12-22T13:50:20;91.13;;;53.33;;
8550;SDS011;4313;42.000;21.380;2022-12-22T13:52:49;82.57;;;48.33;;
8550;SDS011;4313;42.000;21.380;2022-12-22T13:55:18;99.33;;;55.63;;
8550;SDS011;4313;42.000;21.380;2022-12-22T13:57:47;98.33;;;53.60;;
8550;SDS011;4313;42.000;21.380;2022-12-22T14:00:21;91.07;;;52.43;;
8550;SDS011;4313;42.000;21.380;2022-12-22T14:02:49;82.90;;;50.00;;
8550;SDS011;4313;42.000;21.380;2022-12-22T14:05:17;89.70;;;54.80;;
8550;SDS011;4313;42.000;21.380;2022-12-22T14:07:58;86.77;;;52.27;;
8550;SDS011;4313;42.000;21.380;2022-12-22T14:10:30;82.73;;;49.80;;
8550;SDS011;4313;42.000;21.380;2022-12-22T14:13:00;84.30;;;48.23;;
8550;SDS011;4313;42.000;21.380;2022-12-22T14:15:32;90.03;;;50.63;;
8550;SDS011;4313;42.000;21.380;2022-12-22T14:18:00;105.33;;;56.83;;
8550;SDS011;4313;42.000;21.380;2022-12-22T14:20:27;90.97;;;52.23;;
8550;SDS011;4313;42.000;21.380;2022-12-22T14:22:57;95.13;;;52.90;;
8550;SDS011;4313;42.000;21.380;2022-12-22T14:25:28;107.57;;;59.07;;
8550;SDS011;4313;42.000;21.380;2022-12-22T14:27:57;105.67;;;56.03;;
8550;SDS011;4313;42.000;21.380;2022-12-22T14:30:26;105.03;;;60.47;;
8550;SDS011;4313;42.000;21.380;2022-12-22T14:33:01;100.37;;;59.23;;
8550;SDS011;4313;42.000;21.380;2022-12-22T14:35:41;125.87;;;70.27;;
8550;SDS011;4313;42.000;21.380;2022-12-22T14:38:19;132.23;;;77.73;;
8550;SDS011;4313;42.000;21.380;2022-12-22T14:40:48;128.77;;;81.70;;
8550;SDS011;4313;42.000;21.380;2022-12-22T14:43:23;146.53;;;87.63;;
8550;SDS011;4313;42.000;21.380;2022-12-22T14:45:59;144.40;;;84.40;;
8550;SDS011;4313;42.000;21.380;2022-12-22T14:48:29;132.37;;;80.97;;
8550;SDS011;4313;42.000;21.380;2022-12-22T14:50:58;144.97;;;86.23;;
8550;SDS011;4313;42.000;21.380;2022-12-22T14:53:31;137.23;;;79.90;;
8550;SDS011;4313;42.000;21.380;2022-12-22T14:56:02;134.37;;;79.57;;
8550;SDS011;4313;42.000;21.380;2022-12-22T14:58:30;136.10;;;79.40;;
8550;SDS011;4313;42.000;21.380;2022-12-22T15:01:13;154.03;;;86.27;;
8550;SDS011;4313;42.000;21.380;2022-12-22T15:03:57;138.40;;;85.93;;
8550;SDS011;4313;42.000;21.380;2022-12-22T15:06:40;148.50;;;85.57;;
8550;SDS011;4313;42.000;21.380;2022-12-22T15:09:25;161.30;;;93.23;;
8550;SDS011;4313;42.000;21.380;2022-12-22T15:12:01;163.30;;;96.40;;
8550;SDS011;4313;42.000;21.380;2022-12-22T15:14:31;163.53;;;94.40;;
8550;SDS011;4313;42.000;21.380;2022-12-22T15:17:00;160.17;;;95.73;;
8550;SDS011;4313;42.000;21.380;2022-12-22T15:19:31;174.57;;;104.47;;
8550;SDS011;4313;42.000;21.380;2022-12-22T15:21:59;170.70;;;100.07;;
8550;SDS011;4313;42.000;21.380;2022-12-22T15:24:26;135.33;;;80.00;;
8550;SDS011;4313;42.000;21.380;2022-12-22T15:29:24;135.17;;;85.43;;
8550;SDS011;4313;42.000;21.380;2022-12-22T15:31:52;173.87;;;107.50;;
8550;SDS011;4313;42.000;21.380;2022-12-22T15:34:21;169.03;;;101.47;;
8550;SDS011;4313;42.000;21.380;2022-12-22T15:36:50;142.07;;;86.77;;
8550;SDS011;4313;42.000;21.380;2022-12-22T15:39:18;148.93;;;91.13;;
8550;SDS011;4313;42.000;21.380;2022-12-22T15:41:51;161.40;;;92.60;;
8550;SDS011;4313;42.000;21.380;2022-12-22T15:44:21;119.37;;;72.10;;
8550;SDS011;4313;42.000;21.380;2022-12-22T15:46:50;231.27;;;124.57;;
8550;SDS011;4313;42.000;21.380;2022-12-22T15:49:43;144.83;;;83.30;;
8550;SDS011;4313;42.000;21.380;2022-12-22T15:52:11;138.23;;;82.20;;
8550;SDS011;4313;42.000;21.380;2022-12-22T15:54:39;156.23;;;92.73;;
8550;SDS011;4313;42.000;21.380;2022-12-22T15:57:07;162.70;;;94.57;;